createdAt,value
2023-08-12T00:00:35.123Z,64.70
2023-08-12T00:01:35.138Z,64.30
2023-08-12T00:02:35.136Z,66.38
2023-08-12T00:03:35.107Z,62.52
2023-08-12T00:04:35.072Z,60.39
2023-08-12T00:05:35.048Z,64.15
2023-08-12T00:06:35.067Z,60.41
2023-08-12T00:07:35.094Z,60.50
2023-08-12T00:08:35.012Z,64.98
2023-08-12T00:09:35.142Z,54.02
2023-08-12T00:10:35.013Z,62.27
2023-08-12T00:11:35.020Z,58.45
2023-08-12T00:12:35.023Z,58.94
2023-08-12T00:13:34.951Z,64.93
2023-08-12T00:14:34.966Z,66.79
2023-08-12T00:15:34.987Z,68.12
2023-08-12T00:16:34.908Z,62.84
2023-08-12T00:17:34.965Z,58.26
2023-08-12T00:18:35.895Z,65.18
2023-08-12T00:19:34.878Z,59.90
2023-08-12T00:20:34.876Z,63.06
2023-08-12T00:21:34.855Z,63.88
2023-08-12T00:22:34.887Z,62.01
2023-08-12T00:23:34.837Z,60.49
2023-08-12T00:24:34.850Z,61.41
2023-08-12T00:25:34.829Z,64.96
2023-08-12T00:26:34.829Z,63.63
2023-08-12T00:27:34.797Z,59.82
2023-08-12T00:28:34.811Z,64.81
2023-08-12T00:29:34.777Z,67.23
2023-08-12T00:30:34.801Z,61.97
2023-08-12T00:31:34.935Z,65.69
2023-08-12T00:32:34.796Z,64.19
2023-08-12T00:33:34.760Z,63.94
2023-08-12T00:34:34.720Z,64.91
2023-08-12T00:35:34.721Z,57.14
2023-08-12T00:36:35.699Z,65.51
2023-08-12T00:37:34.683Z,64.28
2023-08-12T00:38:34.729Z,65.41
2023-08-12T00:39:34.675Z,66.32
2023-08-12T00:40:34.687Z,63.61
2023-08-12T00:41:34.636Z,57.54
2023-08-12T00:42:34.669Z,62.13
2023-08-12T00:43:34.790Z,65.01
2023-08-12T00:44:34.607Z,64.47
2023-08-12T00:45:34.628Z,63.88
2023-08-12T00:46:34.597Z,67.31
2023-08-12T00:47:34.619Z,60.73
2023-08-12T00:48:34.554Z,57.96
2023-08-12T00:49:34.567Z,63.20
2023-08-12T00:50:34.615Z,63.90
2023-08-12T00:51:34.632Z,56.12
2023-08-12T00:52:34.524Z,68.19
2023-08-12T00:53:34.510Z,61.18
2023-08-12T00:54:34.589Z,63.35
2023-08-12T00:55:34.519Z,63.86
2023-08-12T00:56:34.477Z,64.11
2023-08-12T00:57:34.513Z,63.36
2023-08-12T00:58:34.424Z,65.67
2023-08-12T00:59:34.471Z,62.98
2023-08-12T01:00:34.912Z,61.24
2023-08-12T01:01:34.412Z,64.61
2023-08-12T01:02:34.638Z,64.13
2023-08-12T01:03:34.535Z,63.92
2023-08-12T01:04:34.404Z,57.36
2023-08-12T01:05:34.384Z,59.02
2023-08-12T01:06:34.438Z,62.03
2023-08-12T01:07:34.379Z,60.86
2023-08-12T01:08:34.355Z,63.57
2023-08-12T01:09:34.345Z,52.05
2023-08-12T01:10:34.323Z,63.40
2023-08-12T01:11:34.268Z,64.82
2023-08-12T01:12:34.259Z,62.75
2023-08-12T01:13:34.291Z,67.06
2023-08-12T01:14:34.265Z,61.97
2023-08-12T01:15:34.246Z,59.35
2023-08-12T01:16:34.233Z,67.41
2023-08-12T01:17:34.231Z,64.31
2023-08-12T01:18:34.312Z,62.79
2023-08-12T01:19:34.189Z,60.30
2023-08-12T01:20:35.422Z,62.58
2023-08-12T01:21:34.183Z,49.36
2023-08-12T01:22:34.167Z,53.19
2023-08-12T01:23:34.157Z,64.61
2023-08-12T01:24:34.178Z,54.62
2023-08-12T01:25:34.168Z,56.71
2023-08-12T01:26:34.156Z,59.78
2023-08-12T01:27:34.337Z,63.06
2023-08-12T01:28:34.135Z,65.08
2023-08-12T01:29:34.113Z,63.22
2023-08-12T01:30:34.241Z,59.23
2023-08-12T01:31:34.164Z,62.94
2023-08-12T01:32:34.140Z,62.00
2023-08-12T01:33:34.057Z,60.65
2023-08-12T01:34:34.064Z,59.17
2023-08-12T01:35:34.023Z,65.71
2023-08-12T01:36:34.088Z,64.67
2023-08-12T01:37:34.077Z,50.72
2023-08-12T01:38:34.063Z,60.46
2023-08-12T01:39:34.165Z,63.97
2023-08-12T01:40:34.033Z,63.17
2023-08-12T01:41:33.993Z,59.86
2023-08-12T01:42:34.008Z,58.33
2023-08-12T01:43:33.968Z,52.21
2023-08-12T01:44:33.923Z,62.60
2023-08-12T01:45:34.127Z,52.56
2023-08-12T01:46:34.037Z,62.47
2023-08-12T01:47:34.289Z,63.34
2023-08-12T01:48:34.070Z,64.90
2023-08-12T01:49:34.040Z,64.85
2023-08-12T01:50:33.919Z,65.76
2023-08-12T01:51:33.865Z,61.30
2023-08-12T01:52:33.861Z,61.30
2023-08-12T01:53:33.883Z,67.62
2023-08-12T01:54:33.877Z,55.09
2023-08-12T01:55:33.830Z,61.61
2023-08-12T01:56:33.805Z,64.54
2023-08-12T01:57:33.855Z,62.48
2023-08-12T01:58:33.845Z,61.50
2023-08-12T01:59:33.817Z,61.53
2023-08-12T02:00:33.759Z,58.57
2023-08-12T02:01:33.760Z,53.75
2023-08-12T02:02:33.807Z,66.48
2023-08-12T02:03:33.840Z,58.39
2023-08-12T02:04:33.730Z,61.95
2023-08-12T02:05:33.803Z,59.80
2023-08-12T02:06:33.672Z,56.40
2023-08-12T02:07:33.839Z,48.59
2023-08-12T02:08:33.740Z,61.26
2023-08-12T02:09:33.689Z,59.58
2023-08-12T02:10:33.666Z,56.81
2023-08-12T02:11:33.680Z,59.26
2023-08-12T02:12:33.670Z,65.35
2023-08-12T02:13:34.820Z,60.76
2023-08-12T02:14:34.376Z,64.87
2023-08-12T02:15:33.605Z,61.17
2023-08-12T02:16:33.696Z,47.29
2023-08-12T02:17:33.743Z,49.03
2023-08-12T02:18:33.831Z,65.88
2023-08-12T02:19:33.731Z,61.44
2023-08-12T02:20:33.565Z,60.00
2023-08-12T02:21:33.569Z,64.95
2023-08-12T02:22:33.548Z,64.59
2023-08-12T02:23:33.542Z,62.31
2023-08-12T02:24:33.551Z,64.17
2023-08-12T02:25:33.458Z,63.91
2023-08-12T02:26:33.537Z,57.07
2023-08-12T02:27:33.454Z,56.79
2023-08-12T02:28:33.463Z,61.59
2023-08-12T02:29:33.441Z,62.97
2023-08-12T02:30:34.291Z,60.73
2023-08-12T02:31:33.476Z,61.49
2023-08-12T02:32:33.623Z,61.72
2023-08-12T02:33:33.564Z,65.28
2023-08-12T02:34:33.414Z,62.21
2023-08-12T02:35:33.362Z,61.37
2023-08-12T02:36:33.395Z,70.04
2023-08-12T02:37:33.390Z,64.08
2023-08-12T02:38:33.345Z,63.46
2023-08-12T02:39:33.317Z,58.49
2023-08-12T02:40:33.404Z,64.49
2023-08-12T02:41:33.638Z,63.57
2023-08-12T02:42:34.076Z,64.24
2023-08-12T02:43:33.484Z,68.74
2023-08-12T02:44:33.444Z,65.53
2023-08-12T02:45:33.327Z,65.28
2023-08-12T02:46:33.263Z,65.79
2023-08-12T02:47:33.285Z,60.00
2023-08-12T02:48:33.857Z,67.95
2023-08-12T02:49:33.250Z,64.09
2023-08-12T02:50:33.226Z,63.63
2023-08-12T02:51:33.196Z,58.77
2023-08-12T02:52:33.178Z,65.63
2023-08-12T02:53:33.164Z,62.30
2023-08-12T02:54:33.165Z,63.52
2023-08-12T02:55:33.200Z,59.32
2023-08-12T02:56:33.140Z,63.21
2023-08-12T02:57:33.128Z,65.10
2023-08-12T02:58:33.099Z,62.00
2023-08-12T02:59:33.085Z,63.36
2023-08-12T03:00:33.137Z,65.24
2023-08-12T03:01:33.134Z,66.82
2023-08-12T03:02:33.153Z,63.47
2023-08-12T03:03:33.089Z,67.27
2023-08-12T03:04:33.058Z,63.40
2023-08-12T03:05:33.053Z,65.30
2023-08-12T03:06:33.004Z,65.83
2023-08-12T03:07:33.032Z,63.69
2023-08-12T03:08:32.981Z,70.84
2023-08-12T03:09:33.022Z,61.01
2023-08-12T03:10:32.959Z,59.73
2023-08-12T03:11:32.957Z,66.35
2023-08-12T03:12:33.015Z,65.50
2023-08-12T03:13:32.954Z,67.21
2023-08-12T03:14:32.938Z,66.72
2023-08-12T03:15:32.975Z,65.93
2023-08-12T03:16:32.942Z,63.92
2023-08-12T03:17:32.950Z,67.44
2023-08-12T03:18:32.908Z,67.01
2023-08-12T03:19:32.859Z,65.99
2023-08-12T03:20:32.905Z,63.94
2023-08-12T03:21:32.931Z,68.54
2023-08-12T03:22:32.846Z,67.35
2023-08-12T03:23:32.842Z,64.66
2023-08-12T03:25:05.218Z,65.72
2023-08-12T03:25:32.780Z,68.72
2023-08-12T03:26:32.838Z,69.56
2023-08-12T03:27:33.422Z,70.71
2023-08-12T03:28:32.813Z,69.37
2023-08-12T03:29:32.783Z,65.94
2023-08-12T03:30:32.762Z,66.00
2023-08-12T03:31:32.767Z,69.39
2023-08-12T03:32:32.766Z,69.92
2023-08-12T03:33:32.761Z,69.53
2023-08-12T03:34:33.755Z,69.90
2023-08-12T03:35:32.703Z,68.51
2023-08-12T03:36:32.736Z,63.32
2023-08-12T03:37:32.725Z,68.84
2023-08-12T03:38:32.714Z,69.97
2023-08-12T03:39:32.699Z,69.58
2023-08-12T03:40:32.646Z,69.94
2023-08-12T03:41:32.644Z,66.03
2023-08-12T03:42:32.644Z,69.94
2023-08-12T03:43:32.617Z,64.99
2023-08-12T03:44:32.906Z,69.75
2023-08-12T03:45:32.623Z,68.75
2023-08-12T03:46:32.590Z,69.02
2023-08-12T03:47:32.687Z,68.27
2023-08-12T03:48:32.651Z,67.07
2023-08-12T03:49:32.601Z,68.03
2023-08-12T03:50:32.545Z,72.32
2023-08-12T03:51:32.547Z,67.47
2023-08-12T03:52:32.571Z,70.98
2023-08-12T03:53:32.513Z,66.60
2023-08-12T03:54:32.527Z,65.67
2023-08-12T03:55:32.531Z,65.89
2023-08-12T03:56:32.507Z,70.17
2023-08-12T03:57:32.482Z,66.57
2023-08-12T03:58:32.407Z,65.46
2023-08-12T03:59:32.415Z,65.28
2023-08-12T04:00:32.476Z,65.17
2023-08-12T04:01:32.425Z,69.99
2023-08-12T04:02:32.538Z,72.05
2023-08-12T04:03:32.514Z,69.67
2023-08-12T04:04:32.387Z,66.45
2023-08-12T04:05:32.446Z,65.84
2023-08-12T04:06:32.407Z,67.55
2023-08-12T04:07:32.352Z,67.05
2023-08-12T04:08:32.366Z,66.85
2023-08-12T04:09:32.321Z,63.22
2023-08-12T04:10:32.291Z,67.24
2023-08-12T04:11:32.366Z,70.15
2023-08-12T04:12:32.338Z,67.02
2023-08-12T04:13:32.270Z,66.01
2023-08-12T04:14:32.323Z,69.00
2023-08-12T04:15:32.283Z,66.75
2023-08-12T04:16:32.326Z,66.59
2023-08-12T04:17:32.294Z,69.45
2023-08-12T04:18:32.208Z,64.51
2023-08-12T04:19:32.179Z,66.71
2023-08-12T04:20:32.233Z,67.07
2023-08-12T04:21:32.243Z,65.56
2023-08-12T04:22:32.172Z,69.10
2023-08-12T04:23:32.186Z,70.91
2023-08-12T04:24:32.165Z,70.75
2023-08-12T04:25:32.214Z,67.21
2023-08-12T04:26:32.104Z,64.64
2023-08-12T04:27:32.199Z,64.19
2023-08-12T04:28:32.144Z,68.62
2023-08-12T04:29:32.091Z,64.09
2023-08-12T04:30:32.112Z,64.30
2023-08-12T04:31:32.428Z,63.78
2023-08-12T04:32:32.122Z,66.43
2023-08-12T04:33:32.069Z,65.66
2023-08-12T04:34:32.084Z,67.60
2023-08-12T04:35:32.054Z,69.00
2023-08-12T04:36:32.005Z,69.88
2023-08-12T04:37:32.005Z,66.09
2023-08-12T04:38:32.028Z,68.85
2023-08-12T04:39:32.012Z,69.85
2023-08-12T04:40:32.073Z,68.55
2023-08-12T04:41:31.997Z,69.90
2023-08-12T04:42:31.960Z,68.36
2023-08-12T04:43:31.941Z,68.52
2023-08-12T04:44:31.928Z,65.72
2023-08-12T04:45:31.926Z,69.85
2023-08-12T04:46:31.996Z,71.41
2023-08-12T04:47:31.953Z,70.72
2023-08-12T04:48:31.937Z,66.09
2023-08-12T04:49:31.874Z,62.30
2023-08-12T04:50:31.854Z,69.66
2023-08-12T04:51:31.872Z,67.03
2023-08-12T04:52:31.873Z,66.53
2023-08-12T04:53:31.861Z,67.68
2023-08-12T04:54:31.817Z,67.95
2023-08-12T04:55:31.851Z,64.43
2023-08-12T04:56:31.921Z,69.07
2023-08-12T04:57:31.819Z,68.12
2023-08-12T04:58:31.758Z,70.99
2023-08-12T04:59:31.759Z,63.06
2023-08-12T05:00:31.868Z,67.57
2023-08-12T05:01:31.774Z,66.88
2023-08-12T05:02:31.768Z,70.21
2023-08-12T05:03:31.733Z,69.00
2023-08-12T05:04:31.702Z,66.23
2023-08-12T05:05:31.837Z,69.76
2023-08-12T05:06:31.708Z,65.83
2023-08-12T05:07:31.654Z,63.44
2023-08-12T05:08:31.769Z,69.39
2023-08-12T05:09:31.663Z,66.60
2023-08-12T05:10:31.667Z,70.35
2023-08-12T05:11:31.685Z,71.26
2023-08-12T05:12:31.631Z,68.12
2023-08-12T05:13:31.590Z,68.18
2023-08-12T05:14:31.624Z,69.27
2023-08-12T05:15:31.609Z,70.55
2023-08-12T05:16:31.629Z,69.17
2023-08-12T05:17:31.597Z,66.70
2023-08-12T05:18:31.530Z,67.10
2023-08-12T05:19:31.539Z,65.20
2023-08-12T05:20:31.546Z,65.54
2023-08-12T05:21:31.587Z,68.68
2023-08-12T05:22:31.589Z,69.40
2023-08-12T05:23:31.494Z,68.12
2023-08-12T05:24:31.484Z,67.68
2023-08-12T05:25:31.482Z,67.01
2023-08-12T05:26:31.465Z,70.65
2023-08-12T05:27:32.492Z,69.22
2023-08-12T05:28:31.478Z,67.36
2023-08-12T05:29:31.420Z,65.56
2023-08-12T05:30:31.403Z,66.91
2023-08-12T05:31:31.467Z,67.72
2023-08-12T05:32:31.422Z,71.37
2023-08-12T05:33:31.504Z,68.31
2023-08-12T05:34:31.386Z,65.51
2023-08-12T05:35:31.392Z,65.68
2023-08-12T05:36:31.425Z,69.37
2023-08-12T05:37:31.349Z,68.17
2023-08-12T05:38:31.344Z,69.54
2023-08-12T05:39:31.320Z,70.82
2023-08-12T05:40:31.339Z,67.65
2023-08-12T05:41:31.341Z,71.78
2023-08-12T05:42:31.333Z,66.72
2023-08-12T05:43:31.274Z,70.24
2023-08-12T05:44:31.272Z,68.46
2023-08-12T05:45:31.275Z,66.90
2023-08-12T05:46:31.221Z,69.39
2023-08-12T05:47:31.257Z,69.54
2023-08-12T05:48:31.189Z,70.22
2023-08-12T05:49:31.206Z,66.10
2023-08-12T05:50:31.197Z,68.82
2023-08-12T05:51:31.251Z,69.33
2023-08-12T05:52:31.194Z,69.14
2023-08-12T05:53:31.213Z,66.81
2023-08-12T05:54:31.136Z,68.00
2023-08-12T05:55:32.170Z,67.43
2023-08-12T05:56:31.138Z,69.03
2023-08-12T05:57:31.163Z,68.66
2023-08-12T05:58:31.177Z,69.19
2023-08-12T05:59:31.149Z,67.74
2023-08-12T06:00:31.095Z,70.22
2023-08-12T06:01:31.191Z,68.75
2023-08-12T06:02:31.143Z,66.28
2023-08-12T06:03:31.061Z,70.85
2023-08-12T06:04:31.057Z,72.69
2023-08-12T06:05:31.061Z,68.68
2023-08-12T06:06:31.119Z,66.95
2023-08-12T06:07:31.002Z,72.78
2023-08-12T06:08:31.018Z,63.16
2023-08-12T06:09:30.997Z,67.66
2023-08-12T06:10:30.976Z,69.50
2023-08-12T06:11:30.984Z,69.06
2023-08-12T06:12:30.944Z,69.33
2023-08-12T06:13:30.959Z,71.16
2023-08-12T06:14:30.928Z,70.67
2023-08-12T06:15:30.934Z,67.20
2023-08-12T06:16:30.894Z,64.34
2023-08-12T06:17:30.973Z,67.46
2023-08-12T06:18:30.883Z,68.06
2023-08-12T06:19:30.879Z,69.05
2023-08-12T06:20:30.853Z,70.98
2023-08-12T06:21:30.854Z,71.03
2023-08-12T06:22:31.073Z,68.34
2023-08-12T06:23:30.808Z,70.72
2023-08-12T06:24:30.835Z,70.49
2023-08-12T06:25:30.813Z,69.00
2023-08-12T06:26:30.835Z,69.05
2023-08-12T06:27:30.811Z,69.09
2023-08-12T06:28:30.760Z,68.75
2023-08-12T06:29:30.773Z,71.63
2023-08-12T06:30:30.761Z,71.83
2023-08-12T06:31:30.837Z,69.88
2023-08-12T06:32:30.720Z,71.17
2023-08-12T06:33:30.713Z,71.95
2023-08-12T06:34:30.740Z,70.48
2023-08-12T06:35:30.762Z,67.52
2023-08-12T06:36:30.717Z,71.58
2023-08-12T06:37:30.682Z,72.84
2023-08-12T06:38:30.685Z,70.24
2023-08-12T06:39:30.652Z,71.54
2023-08-12T06:40:30.734Z,72.95
2023-08-12T06:41:30.651Z,70.78
2023-08-12T06:42:30.663Z,72.60
2023-08-12T06:43:30.649Z,73.09
2023-08-12T06:44:30.668Z,71.07
2023-08-12T06:45:30.693Z,71.49
2023-08-12T06:46:30.618Z,71.50
2023-08-12T06:47:30.662Z,71.05
2023-08-12T06:48:30.664Z,72.34
2023-08-12T06:49:30.586Z,69.04
2023-08-12T06:50:30.599Z,73.01
2023-08-12T06:51:30.583Z,73.20
2023-08-12T06:52:30.547Z,72.06
2023-08-12T06:53:30.503Z,72.67
2023-08-12T06:54:30.569Z,71.11
2023-08-12T06:55:30.476Z,70.87
2023-08-12T06:56:30.471Z,70.12
2023-08-12T06:57:30.462Z,71.44
2023-08-12T06:58:30.469Z,70.42
2023-08-12T06:59:30.479Z,70.79
2023-08-12T07:00:30.485Z,70.26
2023-08-12T07:01:30.494Z,70.94
2023-08-12T07:02:30.474Z,71.19
2023-08-12T07:03:30.463Z,72.02
2023-08-12T07:04:30.398Z,69.09
2023-08-12T07:05:30.369Z,71.48
2023-08-12T07:06:30.388Z,70.26
2023-08-12T07:07:30.360Z,70.37
2023-08-12T07:08:30.371Z,70.91
2023-08-12T07:09:30.351Z,66.33
2023-08-12T07:10:30.299Z,68.12
2023-08-12T07:11:30.330Z,69.51
2023-08-12T07:12:30.268Z,70.51
2023-08-12T07:13:30.344Z,70.25
2023-08-12T07:14:30.287Z,72.73
2023-08-12T07:15:30.264Z,69.03
2023-08-12T07:16:30.257Z,69.68
2023-08-12T07:17:30.288Z,68.02
2023-08-12T07:18:30.272Z,68.09
2023-08-12T07:19:30.854Z,66.58
2023-08-12T07:20:30.197Z,70.39
2023-08-12T07:21:30.194Z,69.71
2023-08-12T07:22:30.151Z,71.61
2023-08-12T07:23:30.194Z,71.45
2023-08-12T07:24:30.145Z,69.96
2023-08-12T07:25:30.267Z,70.94
2023-08-12T07:26:30.123Z,69.15
2023-08-12T07:27:30.128Z,69.51
2023-08-12T07:28:30.113Z,70.49
2023-08-12T07:29:30.111Z,72.07
2023-08-12T07:30:30.085Z,71.65
2023-08-12T07:31:30.150Z,72.26
2023-08-12T07:32:30.136Z,71.77
2023-08-12T07:33:30.069Z,70.04
2023-08-12T07:34:31.639Z,69.01
2023-08-12T07:35:31.096Z,68.87
2023-08-12T07:36:30.040Z,68.94
2023-08-12T07:37:30.035Z,70.26
2023-08-12T07:38:30.041Z,68.67
2023-08-12T07:39:30.011Z,71.22
2023-08-12T07:40:30.926Z,71.31
2023-08-12T07:41:29.947Z,71.74
2023-08-12T07:42:29.972Z,69.99
2023-08-12T07:43:29.974Z,71.63
2023-08-12T07:44:29.973Z,70.00
2023-08-12T07:45:29.986Z,70.03
2023-08-12T07:46:30.065Z,68.08
2023-08-12T07:47:30.006Z,70.23
2023-08-12T07:48:29.872Z,69.35
2023-08-12T07:49:29.915Z,69.45
2023-08-12T07:50:29.889Z,67.43
2023-08-12T07:51:29.851Z,67.66
2023-08-12T07:52:29.858Z,68.64
2023-08-12T07:53:29.829Z,67.33
2023-08-12T07:54:29.833Z,66.64
2023-08-12T07:55:29.854Z,68.81
2023-08-12T07:56:29.795Z,67.86
2023-08-12T07:57:29.775Z,70.24
2023-08-12T07:58:29.788Z,69.62
2023-08-12T07:59:29.787Z,68.59
2023-08-12T08:00:29.797Z,69.24
2023-08-12T08:01:29.823Z,66.62
2023-08-12T08:02:29.813Z,66.75
2023-08-12T08:03:29.750Z,68.08
2023-08-12T08:04:29.737Z,68.96
2023-08-12T08:05:29.750Z,68.64
2023-08-12T08:06:29.695Z,70.61
2023-08-12T08:07:29.722Z,68.26
2023-08-12T08:08:29.721Z,68.42
2023-08-12T08:09:29.662Z,68.80
2023-08-12T08:10:29.667Z,68.94
2023-08-12T08:11:29.693Z,68.31
2023-08-12T08:12:29.654Z,69.69
2023-08-12T08:13:29.655Z,68.46
2023-08-12T08:14:29.633Z,69.56
2023-08-12T08:15:29.635Z,68.98
2023-08-12T08:16:29.702Z,70.02
2023-08-12T08:17:30.724Z,68.64
2023-08-12T08:18:30.601Z,67.91
2023-08-12T08:19:30.238Z,70.95
2023-08-12T08:20:30.558Z,70.52
2023-08-12T08:21:29.617Z,70.58
2023-08-12T08:22:32.494Z,70.98
2023-08-12T08:23:29.546Z,71.10
2023-08-12T08:24:29.530Z,70.34
2023-08-12T08:25:29.511Z,69.35
2023-08-12T08:26:29.528Z,67.93
2023-08-12T08:27:29.534Z,71.05
2023-08-12T08:28:29.467Z,71.11
2023-08-12T08:29:29.465Z,69.55
2023-08-12T08:30:29.589Z,70.47
2023-08-12T08:31:29.552Z,69.98
2023-08-12T08:32:29.520Z,69.82
2023-08-12T08:33:29.433Z,71.01
2023-08-12T08:34:29.484Z,69.14
2023-08-12T08:35:29.504Z,70.92
2023-08-12T08:36:29.439Z,72.37
2023-08-12T08:37:29.377Z,68.68
2023-08-12T08:38:29.386Z,72.06
2023-08-12T08:39:29.982Z,71.01
2023-08-12T08:40:29.393Z,71.05
2023-08-12T08:41:32.168Z,70.96
2023-08-12T08:42:30.437Z,70.78
2023-08-12T08:43:29.492Z,73.21
2023-08-12T08:44:29.295Z,71.40
2023-08-12T08:45:29.524Z,70.77
2023-08-12T08:46:29.271Z,69.93
2023-08-12T08:47:29.323Z,73.03
2023-08-12T08:48:29.875Z,71.56
2023-08-12T08:49:29.280Z,71.04
2023-08-12T08:50:29.297Z,71.95
2023-08-12T08:51:29.394Z,71.50
2023-08-12T08:52:29.197Z,70.73
2023-08-12T08:53:29.244Z,70.23
2023-08-12T08:54:29.340Z,70.40
2023-08-12T08:55:29.226Z,71.70
2023-08-12T08:56:29.248Z,70.56
2023-08-12T08:57:40.948Z,69.65
2023-08-12T08:58:30.290Z,71.64
2023-08-12T08:59:29.190Z,70.05
2023-08-12T09:00:29.382Z,71.66
2023-08-12T09:01:29.190Z,72.39
2023-08-12T09:02:29.134Z,71.02
2023-08-12T09:03:29.172Z,70.64
2023-08-12T09:04:29.116Z,70.79
2023-08-12T09:05:29.150Z,72.19
2023-08-12T09:06:29.114Z,73.16
2023-08-12T09:07:29.042Z,73.54
2023-08-12T09:08:29.094Z,71.60
2023-08-12T09:09:29.106Z,73.15
2023-08-12T09:10:29.957Z,71.98
2023-08-12T09:11:30.005Z,73.37
2023-08-12T09:12:29.052Z,72.65
2023-08-12T09:14:01.398Z,71.48
2023-08-12T09:14:29.885Z,71.61
2023-08-12T09:15:29.033Z,72.26
2023-08-12T09:16:29.010Z,73.84
2023-08-12T09:17:29.966Z,71.39
2023-08-12T09:18:29.479Z,73.35
2023-08-12T09:19:28.928Z,72.86
2023-08-12T09:20:28.911Z,72.03
2023-08-12T09:21:28.946Z,72.68
2023-08-12T09:22:28.894Z,73.12
2023-08-12T09:23:28.858Z,72.68
2023-08-12T09:24:28.915Z,74.41
2023-08-12T09:25:29.065Z,70.65
2023-08-12T09:26:28.865Z,72.09
2023-08-12T09:27:28.942Z,71.41
2023-08-12T09:28:28.856Z,70.79
2023-08-12T09:29:28.936Z,72.11
2023-08-12T09:30:28.851Z,68.77
2023-08-12T09:31:28.833Z,73.02
2023-08-12T09:32:28.839Z,71.86
2023-08-12T09:33:28.779Z,71.59
2023-08-12T09:34:28.776Z,72.56
2023-08-12T09:35:28.782Z,72.37
2023-08-12T09:36:28.740Z,72.91
2023-08-12T09:37:28.808Z,71.49
2023-08-12T09:38:28.698Z,71.34
2023-08-12T09:39:28.688Z,71.83
2023-08-12T09:40:28.775Z,72.13
2023-08-12T09:41:28.726Z,71.11
2023-08-12T09:42:28.677Z,71.18
2023-08-12T09:43:29.700Z,69.42
2023-08-12T09:44:28.935Z,72.26
2023-08-12T09:45:29.673Z,72.31
2023-08-12T09:46:28.617Z,72.93
2023-08-12T09:47:28.733Z,71.02
2023-08-12T09:48:28.658Z,70.32
2023-08-12T09:49:28.634Z,73.93
2023-08-12T09:50:28.625Z,72.18
2023-08-12T09:51:28.599Z,69.75
2023-08-12T09:52:28.592Z,71.06
2023-08-12T09:53:28.595Z,72.25
2023-08-12T09:54:28.571Z,71.31
2023-08-12T09:55:28.528Z,72.22
2023-08-12T09:56:28.527Z,71.05
2023-08-12T09:57:28.608Z,73.04
2023-08-12T09:58:28.551Z,71.31
2023-08-12T09:59:28.513Z,72.32
2023-08-12T10:00:28.486Z,73.84
2023-08-12T10:01:29.510Z,71.35
2023-08-12T10:02:28.603Z,73.24
2023-08-12T10:03:28.561Z,71.29
2023-08-12T10:04:28.495Z,70.24
2023-08-12T10:05:28.472Z,71.49
2023-08-12T10:06:28.432Z,71.46
2023-08-12T10:07:28.431Z,69.77
2023-08-12T10:08:28.432Z,72.87
2023-08-12T10:09:29.476Z,70.77
2023-08-12T10:10:28.393Z,72.84
2023-08-12T10:11:28.430Z,70.99
2023-08-12T10:12:28.348Z,71.28
2023-08-12T10:13:28.343Z,70.96
2023-08-12T10:14:28.407Z,72.30
2023-08-12T10:15:28.440Z,72.71
2023-08-12T10:16:28.401Z,72.44
2023-08-12T10:17:42.798Z,73.70
2023-08-12T10:18:30.333Z,72.15
2023-08-12T10:19:28.380Z,73.01
2023-08-12T10:20:28.265Z,71.44
2023-08-12T10:21:28.300Z,71.67
2023-08-12T10:22:28.292Z,72.10
2023-08-12T10:23:28.261Z,71.45
2023-08-12T10:24:28.231Z,71.37
2023-08-12T10:25:28.290Z,71.90
2023-08-12T10:26:28.846Z,73.05
2023-08-12T10:27:28.227Z,72.67
2023-08-12T10:28:28.208Z,73.84
2023-08-12T10:29:28.224Z,72.63
2023-08-12T10:30:28.286Z,71.10
2023-08-12T10:31:28.211Z,71.99
2023-08-12T10:32:28.302Z,72.43
2023-08-12T10:33:28.143Z,72.40
2023-08-12T10:34:28.232Z,71.76
2023-08-12T10:35:28.160Z,70.26
2023-08-12T10:36:28.126Z,70.13
2023-08-12T10:37:28.162Z,71.66
2023-08-12T10:38:28.088Z,70.62
2023-08-12T10:39:28.067Z,72.34
2023-08-12T10:40:28.038Z,72.22
2023-08-12T10:41:28.048Z,72.47
2023-08-12T10:42:28.066Z,73.55
2023-08-12T10:43:28.157Z,71.71
2023-08-12T10:44:28.020Z,72.05
2023-08-12T10:45:28.053Z,72.45
2023-08-12T10:46:29.105Z,73.00
2023-08-12T10:47:28.070Z,73.08
2023-08-12T10:48:28.002Z,71.68
2023-08-12T10:49:27.947Z,74.10
2023-08-12T10:50:28.001Z,73.19
2023-08-12T10:51:27.949Z,71.33
2023-08-12T10:52:27.900Z,70.01
2023-08-12T10:53:27.904Z,70.60
2023-08-12T10:54:27.940Z,69.65
2023-08-12T10:55:27.904Z,71.25
2023-08-12T10:56:27.930Z,73.50
2023-08-12T10:57:28.016Z,72.67
2023-08-12T10:58:28.635Z,73.89
2023-08-12T10:59:27.923Z,72.03
2023-08-12T11:00:27.876Z,72.08
2023-08-12T11:01:27.958Z,71.81
2023-08-12T11:02:27.852Z,71.83
2023-08-12T11:03:27.949Z,70.16
2023-08-12T11:04:30.478Z,72.01
2023-08-12T11:05:27.798Z,71.77
2023-08-12T11:06:27.838Z,72.11
2023-08-12T11:07:27.847Z,72.21
2023-08-12T11:08:27.910Z,73.03
2023-08-12T11:09:27.840Z,70.49
2023-08-12T11:10:27.843Z,71.96
2023-08-12T11:11:27.757Z,71.35
2023-08-12T11:12:27.752Z,72.75
2023-08-12T11:13:27.708Z,71.21
2023-08-12T11:14:27.712Z,73.35
2023-08-12T11:15:27.701Z,70.63
2023-08-12T11:16:27.825Z,71.63
2023-08-12T11:17:27.773Z,72.71
2023-08-12T11:18:27.670Z,69.64
2023-08-12T11:19:27.734Z,70.35
2023-08-12T11:20:30.370Z,72.89
2023-08-12T11:21:27.677Z,71.60
2023-08-12T11:22:27.672Z,70.85
2023-08-12T11:23:27.645Z,71.84
2023-08-12T11:24:27.599Z,71.31
2023-08-12T11:25:27.630Z,72.09
2023-08-12T11:26:27.600Z,72.18
2023-08-12T11:27:27.556Z,73.36
2023-08-12T11:28:27.550Z,72.10
2023-08-12T11:29:27.543Z,72.67
2023-08-12T11:30:31.188Z,71.23
2023-08-12T11:31:27.548Z,72.27
2023-08-12T11:32:27.514Z,71.29
2023-08-12T11:33:28.352Z,72.81
2023-08-12T11:34:27.483Z,71.39
2023-08-12T11:35:27.546Z,71.92
2023-08-12T11:36:27.492Z,69.96
2023-08-12T11:37:27.445Z,69.83
2023-08-12T11:38:27.496Z,71.67
2023-08-12T11:39:27.474Z,72.61
2023-08-12T11:40:27.430Z,72.13
2023-08-12T11:41:27.487Z,72.12
2023-08-12T11:42:27.613Z,70.78
2023-08-12T11:43:27.403Z,69.96
2023-08-12T11:44:27.405Z,70.43
2023-08-12T11:45:27.430Z,70.40
2023-08-12T11:46:27.400Z,69.07
2023-08-12T11:47:27.390Z,71.44
2023-08-12T11:48:27.385Z,72.23
2023-08-12T11:49:27.300Z,71.34
2023-08-12T11:50:27.461Z,72.56
2023-08-12T11:51:28.427Z,71.34
2023-08-12T11:52:27.303Z,71.30
2023-08-12T11:53:27.361Z,72.52
2023-08-12T11:54:28.969Z,70.30
2023-08-12T11:55:27.250Z,71.25
2023-08-12T11:56:27.291Z,72.09
2023-08-12T11:57:27.269Z,70.29
2023-08-12T11:58:33.935Z,71.97
2023-08-12T11:59:28.294Z,71.22
2023-08-12T12:00:27.195Z,70.07
2023-08-12T12:01:27.232Z,72.74
2023-08-12T12:02:27.301Z,71.67
2023-08-12T12:03:27.209Z,71.16
2023-08-12T12:04:27.214Z,70.73
2023-08-12T12:05:27.127Z,69.04
2023-08-12T12:06:28.130Z,70.01
2023-08-12T12:07:27.185Z,71.98
2023-08-12T12:08:27.129Z,71.82
2023-08-12T12:09:27.139Z,72.46
2023-08-12T12:10:28.701Z,71.15
2023-08-12T12:11:27.062Z,71.78
2023-08-12T12:12:27.052Z,72.88
2023-08-12T12:13:27.102Z,71.85
2023-08-12T12:14:27.097Z,70.55
2023-08-12T12:15:27.070Z,73.23
2023-08-12T12:16:27.143Z,70.90
2023-08-12T12:17:27.032Z,70.65
2023-08-12T12:18:26.991Z,72.02
2023-08-12T12:19:27.052Z,70.49
2023-08-12T12:20:26.998Z,71.38
2023-08-12T12:21:26.978Z,73.66
2023-08-12T12:22:26.951Z,73.70
2023-08-12T12:23:29.265Z,71.26
2023-08-12T12:24:26.991Z,72.01
2023-08-12T12:25:26.952Z,71.29
2023-08-12T12:26:26.935Z,72.05
2023-08-12T12:27:26.914Z,71.70
2023-08-12T12:28:30.568Z,72.64
2023-08-12T12:29:26.918Z,70.76
2023-08-12T12:30:26.987Z,70.94
2023-08-12T12:31:26.998Z,71.71
2023-08-12T12:32:26.961Z,69.79
2023-08-12T12:33:26.901Z,71.79
2023-08-12T12:34:27.092Z,70.45
2023-08-12T12:35:26.841Z,71.31
2023-08-12T12:36:26.871Z,70.25
2023-08-12T12:37:26.850Z,71.43
2023-08-12T12:38:26.836Z,72.44
2023-08-12T12:39:26.769Z,72.35
2023-08-12T12:40:26.823Z,71.91
2023-08-12T12:41:26.796Z,72.43
2023-08-12T12:42:26.747Z,72.62
2023-08-12T12:43:26.765Z,71.99
2023-08-12T12:44:26.701Z,71.52
2023-08-12T12:45:26.766Z,71.76
2023-08-12T12:46:26.811Z,72.56
2023-08-12T12:47:26.751Z,70.61
2023-08-12T12:48:26.722Z,72.22
2023-08-12T12:49:26.702Z,72.28
2023-08-12T12:50:26.728Z,71.23
2023-08-12T12:51:26.726Z,72.15
2023-08-12T12:52:26.651Z,70.39